sensor_id;sensor_type;location;lat;lon;timestamp;P1;durP1;ratioP1;P2;durP2;ratioP2
10389;SDS011;5241;47.830;12.972;2023-03-23T00:00:53;4.20;;;2.83;;
10389;SDS011;5241;47.830;12.972;2023-03-23T00:03:19;5.13;;;3.03;;
10389;SDS011;5241;47.830;12.972;2023-03-23T00:05:46;3.67;;;2.97;;
10389;SDS011;5241;47.830;12.972;2023-03-23T00:08:18;7.57;;;3.50;;
10389;SDS011;5241;47.830;12.972;2023-03-23T00:10:48;7.07;;;3.03;;
10389;SDS011;5241;47.830;12.972;2023-03-23T00:13:14;5.27;;;2.83;;
10389;SDS011;5241;47.830;12.972;2023-03-23T00:15:44;4.83;;;3.13;;
10389;SDS011;5241;47.830;12.972;2023-03-23T00:18:10;3.33;;;2.87;;
10389;SDS011;5241;47.830;12.972;2023-03-23T00:20:50;4.57;;;2.60;;
10389;SDS011;5241;47.830;12.972;2023-03-23T00:23:21;3.27;;;2.50;;
10389;SDS011;5241;47.830;12.972;2023-03-23T00:25:49;3.60;;;2.70;;
10389;SDS011;5241;47.830;12.972;2023-03-23T00:28:18;4.03;;;2.50;;
10389;SDS011;5241;47.830;12.972;2023-03-23T00:30:53;3.17;;;2.43;;
10389;SDS011;5241;47.830;12.972;2023-03-23T00:33:24;2.93;;;2.40;;
10389;SDS011;5241;47.830;12.972;2023-03-23T00:35:51;6.07;;;2.60;;
10389;SDS011;5241;47.830;12.972;2023-03-23T00:38:18;2.37;;;2.17;;
10389;SDS011;5241;47.830;12.972;2023-03-23T00:40:47;2.53;;;2.20;;
10389;SDS011;5241;47.830;12.972;2023-03-23T00:43:14;2.87;;;2.20;;
10389;SDS011;5241;47.830;12.972;2023-03-23T00:45:41;3.90;;;2.40;;
10389;SDS011;5241;47.830;12.972;2023-03-23T00:48:07;3.60;;;2.20;;
10389;SDS011;5241;47.830;12.972;2023-03-23T00:50:33;2.80;;;2.40;;
10389;SDS011;5241;47.830;12.972;2023-03-23T00:52:59;3.73;;;2.50;;
10389;SDS011;5241;47.830;12.972;2023-03-23T00:55:25;2.20;;;2.00;;
10389;SDS011;5241;47.830;12.972;2023-03-23T00:57:51;3.60;;;2.03;;
10389;SDS011;5241;47.830;12.972;2023-03-23T01:00:17;3.60;;;2.10;;
10389;SDS011;5241;47.830;12.972;2023-03-23T01:02:44;2.77;;;2.37;;
10389;SDS011;5241;47.830;12.972;2023-03-23T01:05:10;5.77;;;2.13;;
10389;SDS011;5241;47.830;12.972;2023-03-23T01:07:36;3.70;;;2.47;;
10389;SDS011;5241;47.830;12.972;2023-03-23T01:10:02;4.37;;;2.20;;
10389;SDS011;5241;47.830;12.972;2023-03-23T01:12:29;3.63;;;1.83;;
10389;SDS011;5241;47.830;12.972;2023-03-23T01:14:55;4.77;;;2.20;;
10389;SDS011;5241;47.830;12.972;2023-03-23T01:17:20;3.20;;;2.13;;
10389;SDS011;5241;47.830;12.972;2023-03-23T01:19:46;2.87;;;2.00;;
10389;SDS011;5241;47.830;12.972;2023-03-23T01:22:12;1.83;;;1.73;;
10389;SDS011;5241;47.830;12.972;2023-03-23T01:24:38;4.47;;;2.20;;
10389;SDS011;5241;47.830;12.972;2023-03-23T01:27:03;6.20;;;2.00;;
10389;SDS011;5241;47.830;12.972;2023-03-23T01:29:34;7.40;;;2.33;;
10389;SDS011;5241;47.830;12.972;2023-03-23T01:32:01;2.73;;;1.77;;
10389;SDS011;5241;47.830;12.972;2023-03-23T01:34:27;2.87;;;2.37;;
10389;SDS011;5241;47.830;12.972;2023-03-23T01:36:53;4.83;;;1.90;;
10389;SDS011;5241;47.830;12.972;2023-03-23T01:39:19;2.33;;;1.97;;
10389;SDS011;5241;47.830;12.972;2023-03-23T01:41:45;2.70;;;2.10;;
10389;SDS011;5241;47.830;12.972;2023-03-23T01:46:42;4.53;;;2.37;;
10389;SDS011;5241;47.830;12.972;2023-03-23T01:49:09;2.90;;;2.13;;
10389;SDS011;5241;47.830;12.972;2023-03-23T01:51:56;2.43;;;2.03;;
10389;SDS011;5241;47.830;12.972;2023-03-23T01:54:27;3.73;;;2.47;;
10389;SDS011;5241;47.830;12.972;2023-03-23T01:59:29;7.40;;;2.30;;
10389;SDS011;5241;47.830;12.972;2023-03-23T02:01:56;3.63;;;2.00;;
10389;SDS011;5241;47.830;12.972;2023-03-23T02:04:23;5.33;;;1.90;;
10389;SDS011;5241;47.830;12.972;2023-03-23T02:06:50;4.60;;;1.90;;
10389;SDS011;5241;47.830;12.972;2023-03-23T02:09:17;2.20;;;2.00;;
10389;SDS011;5241;47.830;12.972;2023-03-23T02:11:44;2.17;;;1.80;;
10389;SDS011;5241;47.830;12.972;2023-03-23T02:14:10;3.03;;;1.80;;
10389;SDS011;5241;47.830;12.972;2023-03-23T02:19:13;3.63;;;2.00;;
10389;SDS011;5241;47.830;12.972;2023-03-23T02:24:51;3.60;;;2.30;;
10389;SDS011;5241;47.830;12.972;2023-03-23T02:27:42;3.40;;;2.27;;
10389;SDS011;5241;47.830;12.972;2023-03-23T02:33:35;2.43;;;1.90;;
10389;SDS011;5241;47.830;12.972;2023-03-23T02:36:23;2.70;;;1.90;;
10389;SDS011;5241;47.830;12.972;2023-03-23T02:38:59;4.07;;;1.60;;
10389;SDS011;5241;47.830;12.972;2023-03-23T02:41:36;3.00;;;1.60;;
10389;SDS011;5241;47.830;12.972;2023-03-23T02:44:15;2.40;;;2.03;;
10389;SDS011;5241;47.830;12.972;2023-03-23T02:46:42;3.00;;;2.00;;
10389;SDS011;5241;47.830;12.972;2023-03-23T02:49:10;2.90;;;1.97;;
10389;SDS011;5241;47.830;12.972;2023-03-23T02:51:39;3.60;;;1.80;;
10389;SDS011;5241;47.830;12.972;2023-03-23T02:54:07;4.97;;;2.03;;
10389;SDS011;5241;47.830;12.972;2023-03-23T02:56:34;7.27;;;2.53;;
10389;SDS011;5241;47.830;12.972;2023-03-23T02:59:01;4.33;;;2.43;;
10389;SDS011;5241;47.830;12.972;2023-03-23T03:04:04;2.83;;;2.07;;
10389;SDS011;5241;47.830;12.972;2023-03-23T03:06:41;3.30;;;2.20;;
10389;SDS011;5241;47.830;12.972;2023-03-23T03:20:26;2.27;;;1.90;;
10389;SDS011;5241;47.830;12.972;2023-03-23T03:22:55;4.87;;;1.97;;
10389;SDS011;5241;47.830;12.972;2023-03-23T03:25:22;2.07;;;1.87;;
10389;SDS011;5241;47.830;12.972;2023-03-23T03:27:48;4.53;;;2.37;;
10389;SDS011;5241;47.830;12.972;2023-03-23T03:30:17;5.20;;;2.30;;
10389;SDS011;5241;47.830;12.972;2023-03-23T03:32:49;2.37;;;1.70;;
10389;SDS011;5241;47.830;12.972;2023-03-23T03:35:18;2.43;;;2.00;;
10389;SDS011;5241;47.830;12.972;2023-03-23T03:37:46;2.83;;;1.80;;
10389;SDS011;5241;47.830;12.972;2023-03-23T03:40:14;2.17;;;1.63;;
10389;SDS011;5241;47.830;12.972;2023-03-23T03:42:41;2.23;;;1.93;;
10389;SDS011;5241;47.830;12.972;2023-03-23T03:45:08;4.00;;;1.83;;
10389;SDS011;5241;47.830;12.972;2023-03-23T03:47:35;3.33;;;1.87;;
10389;SDS011;5241;47.830;12.972;2023-03-23T03:50:01;3.90;;;2.13;;
10389;SDS011;5241;47.830;12.972;2023-03-23T03:52:27;2.53;;;2.00;;
10389;SDS011;5241;47.830;12.972;2023-03-23T03:54:53;3.23;;;2.00;;
10389;SDS011;5241;47.830;12.972;2023-03-23T03:57:19;2.73;;;1.87;;
10389;SDS011;5241;47.830;12.972;2023-03-23T03:59:45;3.73;;;2.33;;
10389;SDS011;5241;47.830;12.972;2023-03-23T04:02:12;2.47;;;1.90;;
10389;SDS011;5241;47.830;12.972;2023-03-23T04:04:44;2.73;;;2.10;;
10389;SDS011;5241;47.830;12.972;2023-03-23T04:07:14;2.87;;;1.90;;
10389;SDS011;5241;47.830;12.972;2023-03-23T04:09:41;2.57;;;1.97;;
10389;SDS011;5241;47.830;12.972;2023-03-23T04:12:13;2.57;;;1.90;;
10389;SDS011;5241;47.830;12.972;2023-03-23T04:14:39;3.73;;;1.90;;
10389;SDS011;5241;47.830;12.972;2023-03-23T04:17:05;3.80;;;2.07;;
10389;SDS011;5241;47.830;12.972;2023-03-23T04:19:32;2.30;;;1.73;;
10389;SDS011;5241;47.830;12.972;2023-03-23T04:21:58;4.03;;;1.93;;
10389;SDS011;5241;47.830;12.972;2023-03-23T04:24:24;4.33;;;2.03;;
10389;SDS011;5241;47.830;12.972;2023-03-23T04:26:53;2.17;;;1.70;;
10389;SDS011;5241;47.830;12.972;2023-03-23T04:29:19;6.00;;;2.13;;
10389;SDS011;5241;47.830;12.972;2023-03-23T04:31:44;6.77;;;2.20;;
10389;SDS011;5241;47.830;12.972;2023-03-23T04:34:10;2.03;;;1.83;;
10389;SDS011;5241;47.830;12.972;2023-03-23T04:36:40;4.60;;;1.90;;
10389;SDS011;5241;47.830;12.972;2023-03-23T04:39:06;3.10;;;1.93;;
10389;SDS011;5241;47.830;12.972;2023-03-23T04:41:34;3.73;;;2.20;;
10389;SDS011;5241;47.830;12.972;2023-03-23T04:44:03;4.90;;;2.23;;
10389;SDS011;5241;47.830;12.972;2023-03-23T04:46:29;4.50;;;2.17;;
10389;SDS011;5241;47.830;12.972;2023-03-23T04:48:55;4.87;;;2.27;;
10389;SDS011;5241;47.830;12.972;2023-03-23T04:51:23;3.40;;;2.00;;
10389;SDS011;5241;47.830;12.972;2023-03-23T04:53:51;5.63;;;1.80;;
10389;SDS011;5241;47.830;12.972;2023-03-23T04:56:16;3.03;;;2.30;;
10389;SDS011;5241;47.830;12.972;2023-03-23T04:58:43;3.87;;;2.20;;
10389;SDS011;5241;47.830;12.972;2023-03-23T05:01:09;6.33;;;2.00;;
10389;SDS011;5241;47.830;12.972;2023-03-23T05:03:39;3.73;;;2.43;;
10389;SDS011;5241;47.830;12.972;2023-03-23T05:06:05;4.30;;;2.13;;
10389;SDS011;5241;47.830;12.972;2023-03-23T05:08:31;3.50;;;1.80;;
10389;SDS011;5241;47.830;12.972;2023-03-23T05:10:58;3.90;;;2.00;;
10389;SDS011;5241;47.830;12.972;2023-03-23T05:13:25;2.57;;;2.10;;
10389;SDS011;5241;47.830;12.972;2023-03-23T05:15:52;2.63;;;1.87;;
10389;SDS011;5241;47.830;12.972;2023-03-23T05:18:17;5.33;;;2.13;;
10389;SDS011;5241;47.830;12.972;2023-03-23T05:20:45;5.77;;;2.10;;
10389;SDS011;5241;47.830;12.972;2023-03-23T05:23:11;2.73;;;2.10;;
10389;SDS011;5241;47.830;12.972;2023-03-23T05:25:37;4.70;;;2.00;;
10389;SDS011;5241;47.830;12.972;2023-03-23T05:28:07;4.23;;;2.27;;
10389;SDS011;5241;47.830;12.972;2023-03-23T05:30:33;6.10;;;2.30;;
10389;SDS011;5241;47.830;12.972;2023-03-23T05:32:59;2.97;;;2.13;;
10389;SDS011;5241;47.830;12.972;2023-03-23T05:35:25;7.03;;;2.60;;
10389;SDS011;5241;47.830;12.972;2023-03-23T05:37:50;2.73;;;2.07;;
10389;SDS011;5241;47.830;12.972;2023-03-23T05:40:18;2.60;;;2.23;;
10389;SDS011;5241;47.830;12.972;2023-03-23T05:42:45;3.63;;;2.17;;
10389;SDS011;5241;47.830;12.972;2023-03-23T05:45:11;5.73;;;1.90;;
10389;SDS011;5241;47.830;12.972;2023-03-23T05:47:37;5.37;;;2.03;;
10389;SDS011;5241;47.830;12.972;2023-03-23T05:50:04;3.40;;;2.20;;
10389;SDS011;5241;47.830;12.972;2023-03-23T05:52:31;7.37;;;2.27;;
10389;SDS011;5241;47.830;12.972;2023-03-23T05:54:57;4.60;;;1.97;;
10389;SDS011;5241;47.830;12.972;2023-03-23T05:57:24;7.63;;;2.03;;
10389;SDS011;5241;47.830;12.972;2023-03-23T05:59:49;5.33;;;2.20;;
10389;SDS011;5241;47.830;12.972;2023-03-23T06:02:15;11.43;;;2.57;;
10389;SDS011;5241;47.830;12.972;2023-03-23T06:04:40;4.87;;;2.10;;
10389;SDS011;5241;47.830;12.972;2023-03-23T06:07:07;6.43;;;2.00;;
10389;SDS011;5241;47.830;12.972;2023-03-23T06:09:37;4.17;;;2.00;;
10389;SDS011;5241;47.830;12.972;2023-03-23T06:12:03;5.77;;;2.10;;
10389;SDS011;5241;47.830;12.972;2023-03-23T06:14:29;5.37;;;2.00;;
10389;SDS011;5241;47.830;12.972;2023-03-23T06:16:55;9.70;;;2.70;;
10389;SDS011;5241;47.830;12.972;2023-03-23T06:19:20;4.83;;;2.30;;
10389;SDS011;5241;47.830;12.972;2023-03-23T06:21:47;5.13;;;2.27;;
10389;SDS011;5241;47.830;12.972;2023-03-23T06:24:13;4.80;;;2.20;;
10389;SDS011;5241;47.830;12.972;2023-03-23T06:26:39;2.90;;;2.20;;
10389;SDS011;5241;47.830;12.972;2023-03-23T06:29:06;4.87;;;2.17;;
10389;SDS011;5241;47.830;12.972;2023-03-23T06:31:37;7.23;;;2.20;;
10389;SDS011;5241;47.830;12.972;2023-03-23T06:34:05;5.97;;;2.27;;
10389;SDS011;5241;47.830;12.972;2023-03-23T06:36:31;5.30;;;1.93;;
10389;SDS011;5241;47.830;12.972;2023-03-23T06:38:56;3.87;;;2.20;;
10389;SDS011;5241;47.830;12.972;2023-03-23T06:41:22;5.47;;;2.17;;
10389;SDS011;5241;47.830;12.972;2023-03-23T06:43:47;6.70;;;2.40;;
10389;SDS011;5241;47.830;12.972;2023-03-23T06:46:13;5.63;;;2.30;;
10389;SDS011;5241;47.830;12.972;2023-03-23T06:48:39;6.60;;;2.40;;
10389;SDS011;5241;47.830;12.972;2023-03-23T06:51:04;5.37;;;2.40;;
10389;SDS011;5241;47.830;12.972;2023-03-23T06:53:30;5.10;;;2.27;;
10389;SDS011;5241;47.830;12.972;2023-03-23T06:55:56;4.20;;;2.03;;
10389;SDS011;5241;47.830;12.972;2023-03-23T06:58:22;3.57;;;1.93;;
10389;SDS011;5241;47.830;12.972;2023-03-23T07:00:48;5.50;;;2.30;;
10389;SDS011;5241;47.830;12.972;2023-03-23T07:03:21;5.07;;;2.23;;
10389;SDS011;5241;47.830;12.972;2023-03-23T07:05:48;8.77;;;2.43;;
10389;SDS011;5241;47.830;12.972;2023-03-23T07:08:14;3.40;;;2.23;;
10389;SDS011;5241;47.830;12.972;2023-03-23T07:10:40;5.53;;;2.30;;
10389;SDS011;5241;47.830;12.972;2023-03-23T07:13:06;3.60;;;1.80;;
10389;SDS011;5241;47.830;12.972;2023-03-23T07:15:31;2.57;;;1.80;;
10389;SDS011;5241;47.830;12.972;2023-03-23T07:17:57;2.57;;;2.07;;
10389;SDS011;5241;47.830;12.972;2023-03-23T07:20:23;5.33;;;2.13;;
10389;SDS011;5241;47.830;12.972;2023-03-23T07:22:48;2.43;;;2.00;;
10389;SDS011;5241;47.830;12.972;2023-03-23T07:25:16;2.70;;;2.07;;
10389;SDS011;5241;47.830;12.972;2023-03-23T07:27:43;6.23;;;2.40;;
10389;SDS011;5241;47.830;12.972;2023-03-23T07:30:10;4.17;;;2.03;;
10389;SDS011;5241;47.830;12.972;2023-03-23T07:32:37;5.73;;;2.13;;
10389;SDS011;5241;47.830;12.972;2023-03-23T07:35:03;4.10;;;2.17;;
10389;SDS011;5241;47.830;12.972;2023-03-23T07:37:29;3.70;;;2.00;;
10389;SDS011;5241;47.830;12.972;2023-03-23T07:39:54;5.17;;;2.40;;
10389;SDS011;5241;47.830;12.972;2023-03-23T07:42:20;5.50;;;2.13;;
10389;SDS011;5241;47.830;12.972;2023-03-23T07:44:46;2.83;;;2.03;;
10389;SDS011;5241;47.830;12.972;2023-03-23T07:47:11;3.80;;;2.13;;
10389;SDS011;5241;47.830;12.972;2023-03-23T07:49:38;8.17;;;2.07;;
10389;SDS011;5241;47.830;12.972;2023-03-23T07:52:03;4.20;;;2.20;;
10389;SDS011;5241;47.830;12.972;2023-03-23T07:54:29;2.70;;;2.17;;
10389;SDS011;5241;47.830;12.972;2023-03-23T07:56:55;3.10;;;2.20;;
10389;SDS011;5241;47.830;12.972;2023-03-23T07:59:20;3.00;;;2.07;;
10389;SDS011;5241;47.830;12.972;2023-03-23T08:01:46;3.90;;;2.80;;
10389;SDS011;5241;47.830;12.972;2023-03-23T08:04:12;4.50;;;2.43;;
10389;SDS011;5241;47.830;12.972;2023-03-23T08:06:38;5.37;;;2.53;;
10389;SDS011;5241;47.830;12.972;2023-03-23T08:09:05;6.67;;;2.10;;
10389;SDS011;5241;47.830;12.972;2023-03-23T08:11:34;4.53;;;2.20;;
10389;SDS011;5241;47.830;12.972;2023-03-23T08:14:00;3.97;;;2.40;;
10389;SDS011;5241;47.830;12.972;2023-03-23T08:16:26;4.17;;;2.30;;
10389;SDS011;5241;47.830;12.972;2023-03-23T08:18:52;4.17;;;2.30;;
10389;SDS011;5241;47.830;12.972;2023-03-23T08:21:18;4.70;;;2.10;;
10389;SDS011;5241;47.830;12.972;2023-03-23T08:23:44;2.77;;;2.20;;
10389;SDS011;5241;47.830;12.972;2023-03-23T08:26:10;3.23;;;2.03;;
10389;SDS011;5241;47.830;12.972;2023-03-23T08:28:36;5.43;;;2.53;;
10389;SDS011;5241;47.830;12.972;2023-03-23T08:31:09;7.00;;;2.23;;
10389;SDS011;5241;47.830;12.972;2023-03-23T08:33:37;3.07;;;2.20;;
10389;SDS011;5241;47.830;12.972;2023-03-23T08:36:03;3.70;;;2.10;;
10389;SDS011;5241;47.830;12.972;2023-03-23T08:38:29;6.63;;;2.60;;
10389;SDS011;5241;47.830;12.972;2023-03-23T08:40:59;2.97;;;2.10;;
10389;SDS011;5241;47.830;12.972;2023-03-23T08:43:26;3.60;;;2.10;;
10389;SDS011;5241;47.830;12.972;2023-03-23T08:45:52;4.53;;;2.30;;
10389;SDS011;5241;47.830;12.972;2023-03-23T08:48:18;3.33;;;2.13;;
10389;SDS011;5241;47.830;12.972;2023-03-23T08:50:44;3.73;;;1.87;;
10389;SDS011;5241;47.830;12.972;2023-03-23T08:53:10;5.80;;;2.20;;
10389;SDS011;5241;47.830;12.972;2023-03-23T08:55:36;5.60;;;2.17;;
10389;SDS011;5241;47.830;12.972;2023-03-23T08:58:03;3.20;;;2.17;;
10389;SDS011;5241;47.830;12.972;2023-03-23T09:00:29;4.83;;;1.90;;
10389;SDS011;5241;47.830;12.972;2023-03-23T09:02:55;3.77;;;2.13;;
10389;SDS011;5241;47.830;12.972;2023-03-23T09:05:22;2.20;;;1.80;;
10389;SDS011;5241;47.830;12.972;2023-03-23T09:07:51;4.37;;;1.80;;
10389;SDS011;5241;47.830;12.972;2023-03-23T09:10:17;2.97;;;2.00;;
10389;SDS011;5241;47.830;12.972;2023-03-23T09:12:44;2.40;;;1.90;;
10389;SDS011;5241;47.830;12.972;2023-03-23T09:15:12;7.50;;;2.03;;
10389;SDS011;5241;47.830;12.972;2023-03-23T09:17:41;6.73;;;1.83;;
10389;SDS011;5241;47.830;12.972;2023-03-23T09:20:09;2.97;;;1.87;;
10389;SDS011;5241;47.830;12.972;2023-03-23T09:22:37;2.60;;;1.87;;
10389;SDS011;5241;47.830;12.972;2023-03-23T09:25:05;5.13;;;1.60;;
10389;SDS011;5241;47.830;12.972;2023-03-23T09:27:32;3.10;;;2.10;;
10389;SDS011;5241;47.830;12.972;2023-03-23T09:29:58;2.03;;;1.70;;
10389;SDS011;5241;47.830;12.972;2023-03-23T09:32:25;8.83;;;2.03;;
10389;SDS011;5241;47.830;12.972;2023-03-23T09:34:51;4.67;;;2.13;;
10389;SDS011;5241;47.830;12.972;2023-03-23T09:37:20;2.37;;;1.90;;
10389;SDS011;5241;47.830;12.972;2023-03-23T09:39:45;2.13;;;1.60;;
10389;SDS011;5241;47.830;12.972;2023-03-23T09:42:29;3.90;;;1.67;;
10389;SDS011;5241;47.830;12.972;2023-03-23T09:45:00;2.30;;;1.80;;
10389;SDS011;5241;47.830;12.972;2023-03-23T09:50:37;3.93;;;1.90;;
10389;SDS011;5241;47.830;12.972;2023-03-23T09:56:00;4.23;;;2.10;;
10389;SDS011;5241;47.830;12.972;2023-03-23T09:58:31;3.40;;;2.00;;
10389;SDS011;5241;47.830;12.972;2023-03-23T10:03:50;3.53;;;2.10;;
10389;SDS011;5241;47.830;12.972;2023-03-23T10:06:23;4.73;;;2.17;;
10389;SDS011;5241;47.830;12.972;2023-03-23T10:08:52;4.70;;;2.20;;
10389;SDS011;5241;47.830;12.972;2023-03-23T10:11:32;3.13;;;1.80;;
10389;SDS011;5241;47.830;12.972;2023-03-23T10:16:42;5.57;;;2.53;;
10389;SDS011;5241;47.830;12.972;2023-03-23T10:22:04;5.47;;;2.13;;
10389;SDS011;5241;47.830;12.972;2023-03-23T10:24:41;4.13;;;2.00;;
10389;SDS011;5241;47.830;12.972;2023-03-23T10:27:18;3.63;;;2.20;;
10389;SDS011;5241;47.830;12.972;2023-03-23T10:29:58;2.47;;;1.77;;
10389;SDS011;5241;47.830;12.972;2023-03-23T10:32:41;2.30;;;1.93;;
10389;SDS011;5241;47.830;12.972;2023-03-23T10:35:25;3.80;;;2.10;;
10389;SDS011;5241;47.830;12.972;2023-03-23T10:37:59;3.93;;;1.90;;
10389;SDS011;5241;47.830;12.972;2023-03-23T10:40:29;3.17;;;2.07;;
10389;SDS011;5241;47.830;12.972;2023-03-23T10:43:00;4.80;;;2.13;;
10389;SDS011;5241;47.830;12.972;2023-03-23T10:45:29;3.40;;;1.93;;
10389;SDS011;5241;47.830;12.972;2023-03-23T10:48:09;4.87;;;2.00;;
10389;SDS011;5241;47.830;12.972;2023-03-23T10:50:40;3.33;;;1.83;;
10389;SDS011;5241;47.830;12.972;2023-03-23T10:53:15;1.73;;;1.50;;
10389;SDS011;5241;47.830;12.972;2023-03-23T10:55:44;2.07;;;1.80;;
10389;SDS011;5241;47.830;12.972;2023-03-23T10:58:11;2.00;;;1.73;;
10389;SDS011;5241;47.830;12.972;2023-03-23T11:00:48;2.43;;;1.73;;
10389;SDS011;5241;47.830;12.972;2023-03-23T11:05:42;2.83;;;1.90;;
10389;SDS011;5241;47.830;12.972;2023-03-23T11:08:12;4.00;;;1.90;;
10389;SDS011;5241;47.830;12.972;2023-03-23T11:10:42;1.73;;;1.50;;
10389;SDS011;5241;47.830;12.972;2023-03-23T11:13:13;3.67;;;1.60;;
10389;SDS011;5241;47.830;12.972;2023-03-23T11:15:41;2.03;;;1.40;;
10389;SDS011;5241;47.830;12.972;2023-03-23T11:18:10;1.93;;;1.50;;
10389;SDS011;5241;47.830;12.972;2023-03-23T11:20:55;3.43;;;1.63;;
10389;SDS011;5241;47.830;12.972;2023-03-23T11:23:33;2.83;;;1.60;;
10389;SDS011;5241;47.830;12.972;2023-03-23T11:26:08;2.53;;;1.70;;
10389;SDS011;5241;47.830;12.972;2023-03-23T11:28:57;1.67;;;1.37;;
10389;SDS011;5241;47.830;12.972;2023-03-23T11:31:44;2.43;;;1.47;;
10389;SDS011;5241;47.830;12.972;2023-03-23T11:37:01;3.77;;;1.40;;
10389;SDS011;5241;47.830;12.972;2023-03-23T11:39:31;2.77;;;1.53;;
10389;SDS011;5241;47.830;12.972;2023-03-23T11:42:18;2.27;;;1.33;;
10389;SDS011;5241;47.830;12.972;2023-03-23T11:44:53;2.83;;;1.80;;
10389;SDS011;5241;47.830;12.972;2023-03-23T11:52:55;1.93;;;1.63;;
10389;SDS011;5241;47.830;12.972;2023-03-23T11:58:16;4.20;;;1.67;;
10389;SDS011;5241;47.830;12.972;2023-03-23T12:00:49;3.60;;;1.50;;
10389;SDS011;5241;47.830;12.972;2023-03-23T12:06:05;1.53;;;1.33;;
10389;SDS011;5241;47.830;12.972;2023-03-23T12:11:33;2.10;;;1.70;;
10389;SDS011;5241;47.830;12.972;2023-03-23T12:17:01;3.83;;;1.67;;
10389;SDS011;5241;47.830;12.972;2023-03-23T12:25:08;1.40;;;1.30;;
10389;SDS011;5241;47.830;12.972;2023-03-23T12:27:41;2.33;;;1.60;;
10389;SDS011;5241;47.830;12.972;2023-03-23T12:44:43;2.03;;;1.50;;
10389;SDS011;5241;47.830;12.972;2023-03-23T12:49:57;2.60;;;1.40;;
10389;SDS011;5241;47.830;12.972;2023-03-23T12:52:29;2.10;;;1.70;;
10389;SDS011;5241;47.830;12.972;2023-03-23T12:55:06;3.53;;;1.60;;
10389;SDS011;5241;47.830;12.972;2023-03-23T12:57:56;1.80;;;1.50;;
10389;SDS011;5241;47.830;12.972;2023-03-23T13:00:30;2.17;;;1.70;;
10389;SDS011;5241;47.830;12.972;2023-03-23T13:03:22;2.23;;;1.70;;
10389;SDS011;5241;47.830;12.972;2023-03-23T13:11:37;1.90;;;1.70;;
10389;SDS011;5241;47.830;12.972;2023-03-23T13:14:14;1.67;;;1.57;;
10389;SDS011;5241;47.830;12.972;2023-03-23T13:19:29;1.63;;;1.53;;
10389;SDS011;5241;47.830;12.972;2023-03-23T13:22:17;1.67;;;1.47;;
10389;SDS011;5241;47.830;12.972;2023-03-23T13:24:55;1.90;;;1.70;;
10389;SDS011;5241;47.830;12.972;2023-03-23T13:27:24;3.60;;;1.60;;
10389;SDS011;5241;47.830;12.972;2023-03-23T13:29:53;3.27;;;1.70;;
10389;SDS011;5241;47.830;12.972;2023-03-23T13:32:20;4.27;;;1.83;;
10389;SDS011;5241;47.830;12.972;2023-03-23T13:34:47;2.43;;;1.43;;
10389;SDS011;5241;47.830;12.972;2023-03-23T13:39:51;1.53;;;1.43;;
10389;SDS011;5241;47.830;12.972;2023-03-23T13:42:24;1.77;;;1.60;;
10389;SDS011;5241;47.830;12.972;2023-03-23T13:52:21;2.60;;;1.50;;
10389;SDS011;5241;47.830;12.972;2023-03-23T13:54:47;6.40;;;2.77;;
10389;SDS011;5241;47.830;12.972;2023-03-23T13:57:26;2.33;;;1.70;;
10389;SDS011;5241;47.830;12.972;2023-03-23T14:00:10;3.40;;;1.97;;
10389;SDS011;5241;47.830;12.972;2023-03-23T14:05:35;1.90;;;1.67;;
10389;SDS011;5241;47.830;12.972;2023-03-23T14:10:33;2.93;;;2.10;;
10389;SDS011;5241;47.830;12.972;2023-03-23T14:16:15;2.80;;;2.00;;
10389;SDS011;5241;47.830;12.972;2023-03-23T14:18:48;3.37;;;2.17;;
10389;SDS011;5241;47.830;12.972;2023-03-23T14:21:21;2.53;;;1.83;;
10389;SDS011;5241;47.830;12.972;2023-03-23T14:23:50;3.33;;;1.90;;
10389;SDS011;5241;47.830;12.972;2023-03-23T14:26:17;2.63;;;2.17;;
10389;SDS011;5241;47.830;12.972;2023-03-23T14:28:45;2.30;;;2.10;;
10389;SDS011;5241;47.830;12.972;2023-03-23T14:31:16;2.37;;;2.17;;
10389;SDS011;5241;47.830;12.972;2023-03-23T14:33:44;3.17;;;2.03;;
10389;SDS011;5241;47.830;12.972;2023-03-23T14:36:10;3.57;;;2.67;;
10389;SDS011;5241;47.830;12.972;2023-03-23T14:38:36;2.50;;;1.87;;
10389;SDS011;5241;47.830;12.972;2023-03-23T14:41:04;3.40;;;2.40;;
10389;SDS011;5241;47.830;12.972;2023-03-23T14:43:30;3.30;;;2.10;;
10389;SDS011;5241;47.830;12.972;2023-03-23T14:45:59;2.63;;;2.10;;
10389;SDS011;5241;47.830;12.972;2023-03-23T14:48:29;5.47;;;3.17;;
10389;SDS011;5241;47.830;12.972;2023-03-23T14:50:58;3.50;;;2.80;;
10389;SDS011;5241;47.830;12.972;2023-03-23T14:53:33;3.37;;;2.80;;
10389;SDS011;5241;47.830;12.972;2023-03-23T14:56:03;4.43;;;3.20;;
10389;SDS011;5241;47.830;12.972;2023-03-23T14:58:53;2.50;;;2.17;;
10389;SDS011;5241;47.830;12.972;2023-03-23T15:01:19;2.67;;;2.30;;
10389;SDS011;5241;47.830;12.972;2023-03-23T15:04:02;5.60;;;3.07;;
10389;SDS011;5241;47.830;12.972;2023-03-23T15:06:37;3.30;;;2.20;;
10389;SDS011;5241;47.830;12.972;2023-03-23T15:09:09;3.23;;;2.63;;
10389;SDS011;5241;47.830;12.972;2023-03-23T15:11:40;4.37;;;2.70;;
10389;SDS011;5241;47.830;12.972;2023-03-23T15:14:13;3.53;;;2.23;;
10389;SDS011;5241;47.830;12.972;2023-03-23T15:16:45;2.60;;;2.40;;
10389;SDS011;5241;47.830;12.972;2023-03-23T15:19:23;3.23;;;2.03;;
10389;SDS011;5241;47.830;12.972;2023-03-23T15:24:38;3.40;;;2.50;;
10389;SDS011;5241;47.830;12.972;2023-03-23T15:29:31;2.87;;;2.57;;
10389;SDS011;5241;47.830;12.972;2023-03-23T15:31:57;4.07;;;2.60;;
10389;SDS011;5241;47.830;12.972;2023-03-23T15:36:58;3.90;;;2.77;;
10389;SDS011;5241;47.830;12.972;2023-03-23T15:39:30;3.47;;;3.00;;
10389;SDS011;5241;47.830;12.972;2023-03-23T15:41:57;5.30;;;3.10;;
10389;SDS011;5241;47.830;12.972;2023-03-23T15:47:10;4.87;;;3.57;;
10389;SDS011;5241;47.830;12.972;2023-03-23T15:49:42;3.70;;;2.87;;
10389;SDS011;5241;47.830;12.972;2023-03-23T15:52:09;5.17;;;3.43;;
10389;SDS011;5241;47.830;12.972;2023-03-23T15:54:36;3.80;;;3.40;;
10389;SDS011;5241;47.830;12.972;2023-03-23T15:57:02;4.00;;;3.20;;
10389;SDS011;5241;47.830;12.972;2023-03-23T15:59:28;5.87;;;4.23;;
10389;SDS011;5241;47.830;12.972;2023-03-23T16:01:53;6.60;;;3.63;;
10389;SDS011;5241;47.830;12.972;2023-03-23T16:04:19;5.23;;;3.73;;
10389;SDS011;5241;47.830;12.972;2023-03-23T16:06:45;4.20;;;3.53;;
10389;SDS011;5241;47.830;12.972;2023-03-23T16:09:14;4.80;;;3.53;;
10389;SDS011;5241;47.830;12.972;2023-03-23T16:11:42;4.73;;;4.20;;
10389;SDS011;5241;47.830;12.972;2023-03-23T16:14:08;5.67;;;4.03;;
10389;SDS011;5241;47.830;12.972;2023-03-23T16:16:36;7.47;;;6.17;;
10389;SDS011;5241;47.830;12.972;2023-03-23T16:19:04;6.93;;;5.30;;
10389;SDS011;5241;47.830;12.972;2023-03-23T16:21:30;8.00;;;5.40;;
10389;SDS011;5241;47.830;12.972;2023-03-23T16:23:55;10.80;;;8.43;;
10389;SDS011;5241;47.830;12.972;2023-03-23T16:26:21;9.87;;;8.80;;
10389;SDS011;5241;47.830;12.972;2023-03-23T16:28:47;6.50;;;4.90;;
10389;SDS011;5241;47.830;12.972;2023-03-23T16:31:12;4.30;;;3.90;;
10389;SDS011;5241;47.830;12.972;2023-03-23T16:33:38;5.73;;;3.93;;
10389;SDS011;5241;47.830;12.972;2023-03-23T16:36:04;4.77;;;3.93;;
10389;SDS011;5241;47.830;12.972;2023-03-23T16:38:30;5.73;;;4.00;;
10389;SDS011;5241;47.830;12.972;2023-03-23T16:40:55;3.93;;;3.37;;
10389;SDS011;5241;47.830;12.972;2023-03-23T16:43:21;5.63;;;4.00;;
10389;SDS011;5241;47.830;12.972;2023-03-23T16:45:46;5.23;;;3.97;;
10389;SDS011;5241;47.830;12.972;2023-03-23T16:48:13;10.10;;;4.70;;
10389;SDS011;5241;47.830;12.972;2023-03-23T16:50:40;4.83;;;3.93;;
10389;SDS011;5241;47.830;12.972;2023-03-23T16:53:06;8.00;;;4.07;;
10389;SDS011;5241;47.830;12.972;2023-03-23T16:55:33;6.67;;;3.97;;
10389;SDS011;5241;47.830;12.972;2023-03-23T16:58:00;8.40;;;4.20;;
10389;SDS011;5241;47.830;12.972;2023-03-23T17:00:26;5.13;;;4.27;;
10389;SDS011;5241;47.830;12.972;2023-03-23T17:02:53;7.00;;;4.37;;